sensor_id;sensor_type;location;lat;lon;timestamp;P1;durP1;ratioP1;P2;durP2;ratioP2
68457;SDS011;65384;52.016;5.428;2023-03-01T00:00:10;17.17;;;7.90;;
68457;SDS011;65384;52.016;5.428;2023-03-01T00:02:36;16.17;;;7.68;;
68457;SDS011;65384;52.016;5.428;2023-03-01T00:05:02;17.30;;;7.50;;
68457;SDS011;65384;52.016;5.428;2023-03-01T00:07:28;18.13;;;7.65;;
68457;SDS011;65384;52.016;5.428;2023-03-01T00:09:53;19.63;;;8.32;;
68457;SDS011;65384;52.016;5.428;2023-03-01T00:12:19;19.20;;;8.15;;
68457;SDS011;65384;52.016;5.428;2023-03-01T00:14:44;21.35;;;8.35;;
68457;SDS011;65384;52.016;5.428;2023-03-01T00:17:09;18.65;;;7.85;;
68457;SDS011;65384;52.016;5.428;2023-03-01T00:19:35;18.55;;;7.88;;
68457;SDS011;65384;52.016;5.428;2023-03-01T00:22:00;18.98;;;7.43;;
68457;SDS011;65384;52.016;5.428;2023-03-01T00:24:26;17.77;;;7.47;;
68457;SDS011;65384;52.016;5.428;2023-03-01T00:26:54;20.63;;;7.53;;
68457;SDS011;65384;52.016;5.428;2023-03-01T00:29:23;18.10;;;7.40;;
68457;SDS011;65384;52.016;5.428;2023-03-01T00:31:49;17.73;;;7.88;;
68457;SDS011;65384;52.016;5.428;2023-03-01T00:34:15;16.50;;;7.70;;
68457;SDS011;65384;52.016;5.428;2023-03-01T00:36:40;20.25;;;8.73;;
68457;SDS011;65384;52.016;5.428;2023-03-01T00:39:07;20.60;;;8.50;;
68457;SDS011;65384;52.016;5.428;2023-03-01T00:41:36;18.75;;;7.93;;
68457;SDS011;65384;52.016;5.428;2023-03-01T00:44:01;17.70;;;7.70;;
68457;SDS011;65384;52.016;5.428;2023-03-01T00:46:27;19.38;;;7.38;;
68457;SDS011;65384;52.016;5.428;2023-03-01T00:48:52;20.33;;;8.63;;
68457;SDS011;65384;52.016;5.428;2023-03-01T00:51:26;24.25;;;9.15;;
68457;SDS011;65384;52.016;5.428;2023-03-01T00:53:52;16.17;;;7.93;;
68457;SDS011;65384;52.016;5.428;2023-03-01T00:56:19;16.45;;;7.82;;
68457;SDS011;65384;52.016;5.428;2023-03-01T00:58:45;18.15;;;7.60;;
68457;SDS011;65384;52.016;5.428;2023-03-01T01:01:15;16.98;;;7.75;;
68457;SDS011;65384;52.016;5.428;2023-03-01T01:03:43;19.33;;;7.90;;
68457;SDS011;65384;52.016;5.428;2023-03-01T01:06:31;17.33;;;8.38;;
68457;SDS011;65384;52.016;5.428;2023-03-01T01:08:58;17.35;;;7.90;;
68457;SDS011;65384;52.016;5.428;2023-03-01T01:11:26;17.55;;;7.40;;
68457;SDS011;65384;52.016;5.428;2023-03-01T01:13:52;17.33;;;7.65;;
68457;SDS011;65384;52.016;5.428;2023-03-01T01:16:19;16.70;;;7.45;;
68457;SDS011;65384;52.016;5.428;2023-03-01T01:18:46;18.60;;;7.93;;
68457;SDS011;65384;52.016;5.428;2023-03-01T01:21:12;17.95;;;7.97;;
68457;SDS011;65384;52.016;5.428;2023-03-01T01:23:40;20.63;;;7.47;;
68457;SDS011;65384;52.016;5.428;2023-03-01T01:26:07;18.17;;;8.00;;
68457;SDS011;65384;52.016;5.428;2023-03-01T01:28:33;19.77;;;8.13;;
68457;SDS011;65384;52.016;5.428;2023-03-01T01:30:59;23.00;;;8.38;;
68457;SDS011;65384;52.016;5.428;2023-03-01T01:33:24;21.08;;;7.97;;
68457;SDS011;65384;52.016;5.428;2023-03-01T01:35:49;20.45;;;8.10;;
68457;SDS011;65384;52.016;5.428;2023-03-01T01:38:15;15.60;;;7.13;;
68457;SDS011;65384;52.016;5.428;2023-03-01T01:40:44;17.58;;;8.10;;
68457;SDS011;65384;52.016;5.428;2023-03-01T01:43:43;17.88;;;7.70;;
68457;SDS011;65384;52.016;5.428;2023-03-01T01:46:48;17.55;;;8.02;;
68457;SDS011;65384;52.016;5.428;2023-03-01T01:51:25;17.60;;;7.93;;
68457;SDS011;65384;52.016;5.428;2023-03-01T01:53:55;18.35;;;8.27;;
68457;SDS011;65384;52.016;5.428;2023-03-01T01:56:23;16.38;;;7.35;;
68457;SDS011;65384;52.016;5.428;2023-03-01T01:58:49;20.10;;;8.95;;
68457;SDS011;65384;52.016;5.428;2023-03-01T02:01:15;22.52;;;8.85;;
68457;SDS011;65384;52.016;5.428;2023-03-01T02:03:41;18.90;;;8.38;;
68457;SDS011;65384;52.016;5.428;2023-03-01T02:06:13;25.08;;;9.52;;
68457;SDS011;65384;52.016;5.428;2023-03-01T02:08:54;24.25;;;8.88;;
68457;SDS011;65384;52.016;5.428;2023-03-01T02:11:20;20.02;;;8.80;;
68457;SDS011;65384;52.016;5.428;2023-03-01T02:13:46;20.75;;;8.52;;
68457;SDS011;65384;52.016;5.428;2023-03-01T02:16:12;26.02;;;8.95;;
68457;SDS011;65384;52.016;5.428;2023-03-01T02:18:40;22.77;;;8.45;;
68457;SDS011;65384;52.016;5.428;2023-03-01T02:23:54;20.55;;;8.85;;
68457;SDS011;65384;52.016;5.428;2023-03-01T02:26:23;20.48;;;9.05;;
68457;SDS011;65384;52.016;5.428;2023-03-01T02:28:52;23.65;;;9.27;;
68457;SDS011;65384;52.016;5.428;2023-03-01T02:31:19;23.05;;;9.15;;
68457;SDS011;65384;52.016;5.428;2023-03-01T02:34:03;20.63;;;8.68;;
68457;SDS011;65384;52.016;5.428;2023-03-01T02:36:31;23.13;;;9.48;;
68457;SDS011;65384;52.016;5.428;2023-03-01T02:39:05;21.30;;;9.32;;
68457;SDS011;65384;52.016;5.428;2023-03-01T02:41:33;27.10;;;10.27;;
68457;SDS011;65384;52.016;5.428;2023-03-01T02:44:01;22.25;;;8.80;;
68457;SDS011;65384;52.016;5.428;2023-03-01T02:46:27;23.60;;;8.50;;
68457;SDS011;65384;52.016;5.428;2023-03-01T02:48:53;21.30;;;8.13;;
68457;SDS011;65384;52.016;5.428;2023-03-01T02:54:15;24.38;;;8.75;;
68457;SDS011;65384;52.016;5.428;2023-03-01T02:56:46;19.77;;;8.95;;
68457;SDS011;65384;52.016;5.428;2023-03-01T02:59:16;24.10;;;9.00;;
68457;SDS011;65384;52.016;5.428;2023-03-01T03:01:43;23.17;;;9.23;;
68457;SDS011;65384;52.016;5.428;2023-03-01T03:04:14;23.73;;;8.77;;
68457;SDS011;65384;52.016;5.428;2023-03-01T03:06:44;22.98;;;8.70;;
68457;SDS011;65384;52.016;5.428;2023-03-01T03:09:10;27.33;;;9.98;;
68457;SDS011;65384;52.016;5.428;2023-03-01T03:11:36;24.98;;;10.27;;
68457;SDS011;65384;52.016;5.428;2023-03-01T03:14:01;26.70;;;10.20;;
68457;SDS011;65384;52.016;5.428;2023-03-01T03:16:27;24.10;;;9.90;;
68457;SDS011;65384;52.016;5.428;2023-03-01T03:18:54;23.58;;;9.00;;
68457;SDS011;65384;52.016;5.428;2023-03-01T03:21:20;24.27;;;9.98;;
68457;SDS011;65384;52.016;5.428;2023-03-01T03:23:45;23.55;;;10.45;;
68457;SDS011;65384;52.016;5.428;2023-03-01T03:26:10;27.00;;;10.20;;
68457;SDS011;65384;52.016;5.428;2023-03-01T03:28:38;25.25;;;10.15;;
68457;SDS011;65384;52.016;5.428;2023-03-01T03:31:05;23.92;;;10.70;;
68457;SDS011;65384;52.016;5.428;2023-03-01T03:33:31;25.55;;;10.38;;
68457;SDS011;65384;52.016;5.428;2023-03-01T03:35:57;23.77;;;10.00;;
68457;SDS011;65384;52.016;5.428;2023-03-01T03:38:22;29.17;;;10.38;;
68457;SDS011;65384;52.016;5.428;2023-03-01T03:40:49;24.50;;;9.77;;
68457;SDS011;65384;52.016;5.428;2023-03-01T03:43:17;23.05;;;9.02;;
68457;SDS011;65384;52.016;5.428;2023-03-01T03:45:44;22.50;;;9.45;;
68457;SDS011;65384;52.016;5.428;2023-03-01T03:48:10;20.80;;;9.45;;
68457;SDS011;65384;52.016;5.428;2023-03-01T03:50:37;23.77;;;9.70;;
68457;SDS011;65384;52.016;5.428;2023-03-01T03:53:04;22.48;;;9.65;;
68457;SDS011;65384;52.016;5.428;2023-03-01T03:55:31;25.80;;;9.90;;
68457;SDS011;65384;52.016;5.428;2023-03-01T03:57:58;19.65;;;8.43;;
68457;SDS011;65384;52.016;5.428;2023-03-01T04:00:27;20.15;;;8.18;;
68457;SDS011;65384;52.016;5.428;2023-03-01T04:02:53;21.15;;;8.30;;
68457;SDS011;65384;52.016;5.428;2023-03-01T04:05:21;22.27;;;8.93;;
68457;SDS011;65384;52.016;5.428;2023-03-01T04:07:46;21.65;;;8.38;;
68457;SDS011;65384;52.016;5.428;2023-03-01T04:10:14;21.65;;;7.70;;
68457;SDS011;65384;52.016;5.428;2023-03-01T04:12:40;16.98;;;7.47;;
68457;SDS011;65384;52.016;5.428;2023-03-01T04:15:08;19.13;;;8.15;;
68457;SDS011;65384;52.016;5.428;2023-03-01T04:17:45;16.05;;;7.00;;
68457;SDS011;65384;52.016;5.428;2023-03-01T04:20:12;19.50;;;7.85;;
68457;SDS011;65384;52.016;5.428;2023-03-01T04:22:42;17.75;;;7.10;;
68457;SDS011;65384;52.016;5.428;2023-03-01T04:25:08;18.60;;;7.40;;
68457;SDS011;65384;52.016;5.428;2023-03-01T04:27:34;15.85;;;7.50;;
68457;SDS011;65384;52.016;5.428;2023-03-01T04:30:00;18.73;;;7.80;;
68457;SDS011;65384;52.016;5.428;2023-03-01T04:32:25;20.73;;;7.75;;
68457;SDS011;65384;52.016;5.428;2023-03-01T04:34:51;18.45;;;8.00;;
68457;SDS011;65384;52.016;5.428;2023-03-01T04:37:16;15.95;;;7.85;;
68457;SDS011;65384;52.016;5.428;2023-03-01T04:39:41;17.63;;;7.50;;
68457;SDS011;65384;52.016;5.428;2023-03-01T04:42:16;20.10;;;8.15;;
68457;SDS011;65384;52.016;5.428;2023-03-01T04:44:42;19.80;;;8.18;;
68457;SDS011;65384;52.016;5.428;2023-03-01T04:47:07;24.77;;;8.48;;
68457;SDS011;65384;52.016;5.428;2023-03-01T04:49:33;17.65;;;8.05;;
68457;SDS011;65384;52.016;5.428;2023-03-01T04:51:58;19.70;;;8.43;;
68457;SDS011;65384;52.016;5.428;2023-03-01T04:54:26;18.33;;;8.20;;
68457;SDS011;65384;52.016;5.428;2023-03-01T04:57:01;22.40;;;8.35;;
68457;SDS011;65384;52.016;5.428;2023-03-01T04:59:28;18.73;;;7.68;;
68457;SDS011;65384;52.016;5.428;2023-03-01T05:01:54;19.52;;;8.00;;
68457;SDS011;65384;52.016;5.428;2023-03-01T05:04:21;22.83;;;8.57;;
68457;SDS011;65384;52.016;5.428;2023-03-01T05:06:47;22.45;;;8.07;;
68457;SDS011;65384;52.016;5.428;2023-03-01T05:09:12;18.08;;;7.45;;
68457;SDS011;65384;52.016;5.428;2023-03-01T05:11:37;16.95;;;7.93;;
68457;SDS011;65384;52.016;5.428;2023-03-01T05:14:03;16.63;;;7.60;;
68457;SDS011;65384;52.016;5.428;2023-03-01T05:16:29;18.02;;;7.60;;
68457;SDS011;65384;52.016;5.428;2023-03-01T05:18:55;14.98;;;6.68;;
68457;SDS011;65384;52.016;5.428;2023-03-01T05:21:21;16.30;;;6.85;;
68457;SDS011;65384;52.016;5.428;2023-03-01T05:23:47;18.48;;;7.65;;
68457;SDS011;65384;52.016;5.428;2023-03-01T05:26:13;20.02;;;8.20;;
68457;SDS011;65384;52.016;5.428;2023-03-01T05:28:39;21.83;;;8.63;;
68457;SDS011;65384;52.016;5.428;2023-03-01T05:31:04;18.80;;;7.93;;
68457;SDS011;65384;52.016;5.428;2023-03-01T05:33:34;17.55;;;7.47;;
68457;SDS011;65384;52.016;5.428;2023-03-01T05:36:00;19.27;;;8.13;;
68457;SDS011;65384;52.016;5.428;2023-03-01T05:38:26;17.83;;;8.10;;
68457;SDS011;65384;52.016;5.428;2023-03-01T05:40:51;21.05;;;8.05;;
68457;SDS011;65384;52.016;5.428;2023-03-01T05:43:16;23.45;;;8.13;;
68457;SDS011;65384;52.016;5.428;2023-03-01T05:45:43;22.63;;;9.15;;
68457;SDS011;65384;52.016;5.428;2023-03-01T05:48:09;20.35;;;8.88;;
68457;SDS011;65384;52.016;5.428;2023-03-01T05:50:35;22.48;;;8.15;;
68457;SDS011;65384;52.016;5.428;2023-03-01T05:53:04;18.85;;;7.72;;
68457;SDS011;65384;52.016;5.428;2023-03-01T05:55:32;21.45;;;8.25;;
68457;SDS011;65384;52.016;5.428;2023-03-01T05:57:59;19.25;;;8.05;;
68457;SDS011;65384;52.016;5.428;2023-03-01T06:00:25;18.00;;;7.85;;
68457;SDS011;65384;52.016;5.428;2023-03-01T06:02:52;20.55;;;8.18;;
68457;SDS011;65384;52.016;5.428;2023-03-01T06:05:18;17.42;;;7.88;;
68457;SDS011;65384;52.016;5.428;2023-03-01T06:07:44;18.42;;;7.78;;
68457;SDS011;65384;52.016;5.428;2023-03-01T06:10:10;19.75;;;8.18;;
68457;SDS011;65384;52.016;5.428;2023-03-01T06:12:37;18.83;;;7.57;;
68457;SDS011;65384;52.016;5.428;2023-03-01T06:15:03;19.70;;;8.30;;
68457;SDS011;65384;52.016;5.428;2023-03-01T06:17:30;18.88;;;7.55;;
68457;SDS011;65384;52.016;5.428;2023-03-01T06:19:56;18.50;;;8.68;;
68457;SDS011;65384;52.016;5.428;2023-03-01T06:22:21;20.52;;;8.57;;
68457;SDS011;65384;52.016;5.428;2023-03-01T06:24:47;21.45;;;8.95;;
68457;SDS011;65384;52.016;5.428;2023-03-01T06:27:12;19.63;;;8.27;;
68457;SDS011;65384;52.016;5.428;2023-03-01T06:29:37;19.90;;;8.15;;
68457;SDS011;65384;52.016;5.428;2023-03-01T06:32:03;20.13;;;8.48;;
68457;SDS011;65384;52.016;5.428;2023-03-01T06:34:29;17.50;;;7.78;;
68457;SDS011;65384;52.016;5.428;2023-03-01T06:36:54;17.42;;;7.88;;
68457;SDS011;65384;52.016;5.428;2023-03-01T06:39:19;18.80;;;8.00;;
68457;SDS011;65384;52.016;5.428;2023-03-01T06:41:45;19.92;;;8.13;;
68457;SDS011;65384;52.016;5.428;2023-03-01T06:44:10;16.92;;;8.02;;
68457;SDS011;65384;52.016;5.428;2023-03-01T06:46:35;16.67;;;7.68;;
68457;SDS011;65384;52.016;5.428;2023-03-01T06:49:01;23.15;;;9.02;;
68457;SDS011;65384;52.016;5.428;2023-03-01T06:51:29;19.52;;;8.38;;
68457;SDS011;65384;52.016;5.428;2023-03-01T06:53:54;18.45;;;8.45;;
68457;SDS011;65384;52.016;5.428;2023-03-01T06:56:20;18.33;;;8.02;;
68457;SDS011;65384;52.016;5.428;2023-03-01T06:58:45;19.50;;;8.15;;
68457;SDS011;65384;52.016;5.428;2023-03-01T07:01:10;21.02;;;8.52;;
68457;SDS011;65384;52.016;5.428;2023-03-01T07:03:36;20.30;;;8.25;;
68457;SDS011;65384;52.016;5.428;2023-03-01T07:06:01;19.27;;;8.27;;
68457;SDS011;65384;52.016;5.428;2023-03-01T07:08:26;18.50;;;7.90;;
68457;SDS011;65384;52.016;5.428;2023-03-01T07:10:58;17.77;;;8.10;;
68457;SDS011;65384;52.016;5.428;2023-03-01T07:13:23;22.33;;;8.77;;
68457;SDS011;65384;52.016;5.428;2023-03-01T07:15:49;20.73;;;7.72;;
68457;SDS011;65384;52.016;5.428;2023-03-01T07:18:14;18.48;;;7.90;;
68457;SDS011;65384;52.016;5.428;2023-03-01T07:20:39;17.25;;;7.97;;
68457;SDS011;65384;52.016;5.428;2023-03-01T07:23:05;18.08;;;7.30;;
68457;SDS011;65384;52.016;5.428;2023-03-01T07:25:31;20.67;;;8.38;;
68457;SDS011;65384;52.016;5.428;2023-03-01T07:27:57;15.27;;;6.70;;
68457;SDS011;65384;52.016;5.428;2023-03-01T07:30:22;20.73;;;8.00;;
68457;SDS011;65384;52.016;5.428;2023-03-01T07:32:50;18.40;;;7.95;;
68457;SDS011;65384;52.016;5.428;2023-03-01T07:35:16;20.40;;;7.95;;
68457;SDS011;65384;52.016;5.428;2023-03-01T07:37:41;18.67;;;8.40;;
68457;SDS011;65384;52.016;5.428;2023-03-01T07:40:07;18.42;;;8.10;;
68457;SDS011;65384;52.016;5.428;2023-03-01T07:42:33;20.33;;;7.97;;
68457;SDS011;65384;52.016;5.428;2023-03-01T07:44:58;17.58;;;7.40;;
68457;SDS011;65384;52.016;5.428;2023-03-01T07:47:23;20.75;;;8.30;;
68457;SDS011;65384;52.016;5.428;2023-03-01T07:49:49;18.45;;;8.30;;
68457;SDS011;65384;52.016;5.428;2023-03-01T07:52:14;21.05;;;8.55;;
68457;SDS011;65384;52.016;5.428;2023-03-01T07:54:41;23.00;;;8.82;;
68457;SDS011;65384;52.016;5.428;2023-03-01T07:57:07;18.67;;;8.15;;
68457;SDS011;65384;52.016;5.428;2023-03-01T07:59:33;26.42;;;8.98;;
68457;SDS011;65384;52.016;5.428;2023-03-01T08:01:58;19.33;;;7.63;;
68457;SDS011;65384;52.016;5.428;2023-03-01T08:04:24;18.98;;;8.13;;
68457;SDS011;65384;52.016;5.428;2023-03-01T08:06:54;20.65;;;8.50;;
68457;SDS011;65384;52.016;5.428;2023-03-01T08:09:19;20.77;;;8.52;;
68457;SDS011;65384;52.016;5.428;2023-03-01T08:11:45;20.30;;;8.45;;
68457;SDS011;65384;52.016;5.428;2023-03-01T08:14:10;22.67;;;8.73;;
68457;SDS011;65384;52.016;5.428;2023-03-01T08:16:36;18.98;;;8.15;;
68457;SDS011;65384;52.016;5.428;2023-03-01T08:19:08;18.00;;;8.02;;
68457;SDS011;65384;52.016;5.428;2023-03-01T08:21:36;19.20;;;8.68;;
68457;SDS011;65384;52.016;5.428;2023-03-01T08:24:02;19.33;;;8.48;;
68457;SDS011;65384;52.016;5.428;2023-03-01T08:26:28;20.20;;;8.48;;
68457;SDS011;65384;52.016;5.428;2023-03-01T08:28:53;18.42;;;8.30;;
68457;SDS011;65384;52.016;5.428;2023-03-01T08:31:22;19.63;;;8.43;;
68457;SDS011;65384;52.016;5.428;2023-03-01T08:33:51;15.98;;;7.40;;
68457;SDS011;65384;52.016;5.428;2023-03-01T08:36:20;17.77;;;8.27;;
68457;SDS011;65384;52.016;5.428;2023-03-01T08:38:46;18.25;;;7.40;;
68457;SDS011;65384;52.016;5.428;2023-03-01T08:41:12;16.35;;;7.80;;
68457;SDS011;65384;52.016;5.428;2023-03-01T08:43:38;22.00;;;8.15;;
68457;SDS011;65384;52.016;5.428;2023-03-01T08:46:03;16.60;;;7.53;;
68457;SDS011;65384;52.016;5.428;2023-03-01T08:48:28;17.40;;;7.90;;
68457;SDS011;65384;52.016;5.428;2023-03-01T08:50:54;20.27;;;7.38;;
68457;SDS011;65384;52.016;5.428;2023-03-01T08:53:20;15.55;;;7.70;;
68457;SDS011;65384;52.016;5.428;2023-03-01T08:55:45;14.23;;;6.97;;
68457;SDS011;65384;52.016;5.428;2023-03-01T08:58:11;15.65;;;7.75;;
68457;SDS011;65384;52.016;5.428;2023-03-01T09:00:36;17.85;;;7.57;;
68457;SDS011;65384;52.016;5.428;2023-03-01T09:03:02;16.33;;;7.22;;
68457;SDS011;65384;52.016;5.428;2023-03-01T09:05:27;13.90;;;6.85;;
68457;SDS011;65384;52.016;5.428;2023-03-01T09:07:53;13.55;;;6.78;;
68457;SDS011;65384;52.016;5.428;2023-03-01T09:10:18;13.57;;;6.85;;
68457;SDS011;65384;52.016;5.428;2023-03-01T09:12:43;14.55;;;7.32;;
68457;SDS011;65384;52.016;5.428;2023-03-01T09:15:09;18.98;;;7.35;;
68457;SDS011;65384;52.016;5.428;2023-03-01T09:17:35;16.02;;;7.32;;
68457;SDS011;65384;52.016;5.428;2023-03-01T09:20:00;14.40;;;7.40;;
68457;SDS011;65384;52.016;5.428;2023-03-01T09:22:25;13.95;;;7.20;;
68457;SDS011;65384;52.016;5.428;2023-03-01T09:24:51;14.00;;;7.10;;
68457;SDS011;65384;52.016;5.428;2023-03-01T09:27:16;13.18;;;6.45;;
68457;SDS011;65384;52.016;5.428;2023-03-01T09:29:44;11.70;;;6.53;;
68457;SDS011;65384;52.016;5.428;2023-03-01T09:32:09;11.77;;;6.55;;
68457;SDS011;65384;52.016;5.428;2023-03-01T09:34:35;11.27;;;6.07;;
68457;SDS011;65384;52.016;5.428;2023-03-01T09:37:20;11.13;;;5.60;;
68457;SDS011;65384;52.016;5.428;2023-03-01T09:39:46;10.55;;;5.60;;
68457;SDS011;65384;52.016;5.428;2023-03-01T09:42:11;10.13;;;5.90;;
68457;SDS011;65384;52.016;5.428;2023-03-01T09:47:28;12.75;;;5.80;;
68457;SDS011;65384;52.016;5.428;2023-03-01T09:55:08;9.90;;;5.57;;
68457;SDS011;65384;52.016;5.428;2023-03-01T09:57:42;13.60;;;5.57;;
68457;SDS011;65384;52.016;5.428;2023-03-01T10:00:42;11.27;;;5.30;;
68457;SDS011;65384;52.016;5.428;2023-03-01T10:03:13;11.50;;;5.60;;
68457;SDS011;65384;52.016;5.428;2023-03-01T10:05:50;8.57;;;5.25;;
68457;SDS011;65384;52.016;5.428;2023-03-01T10:10:49;8.55;;;4.53;;
68457;SDS011;65384;52.016;5.428;2023-03-01T10:15:53;6.80;;;3.67;;
68457;SDS011;65384;52.016;5.428;2023-03-01T10:18:23;6.07;;;3.60;;
68457;SDS011;65384;52.016;5.428;2023-03-01T10:21:02;8.90;;;3.90;;
68457;SDS011;65384;52.016;5.428;2023-03-01T10:23:32;7.13;;;3.80;;
68457;SDS011;65384;52.016;5.428;2023-03-01T10:26:08;8.38;;;3.88;;
68457;SDS011;65384;52.016;5.428;2023-03-01T10:31:18;8.45;;;4.00;;
68457;SDS011;65384;52.016;5.428;2023-03-01T10:33:47;7.60;;;3.90;;
68457;SDS011;65384;52.016;5.428;2023-03-01T10:36:16;6.95;;;3.70;;
68457;SDS011;65384;52.016;5.428;2023-03-01T10:38:55;7.22;;;3.80;;
68457;SDS011;65384;52.016;5.428;2023-03-01T10:41:22;6.65;;;3.80;;
68457;SDS011;65384;52.016;5.428;2023-03-01T10:43:51;6.60;;;3.50;;
68457;SDS011;65384;52.016;5.428;2023-03-01T10:51:45;6.20;;;3.33;;
68457;SDS011;65384;52.016;5.428;2023-03-01T10:54:31;7.65;;;3.72;;
68457;SDS011;65384;52.016;5.428;2023-03-01T10:56:58;7.43;;;3.85;;
68457;SDS011;65384;52.016;5.428;2023-03-01T10:59:32;6.63;;;3.70;;
68457;SDS011;65384;52.016;5.428;2023-03-01T11:02:45;8.10;;;3.50;;
68457;SDS011;65384;52.016;5.428;2023-03-01T11:04:56;8.25;;;3.80;;
68457;SDS011;65384;52.016;5.428;2023-03-01T11:07:22;6.50;;;3.50;;
68457;SDS011;65384;52.016;5.428;2023-03-01T11:09:48;6.97;;;3.50;;
68457;SDS011;65384;52.016;5.428;2023-03-01T11:12:13;5.72;;;3.25;;
68457;SDS011;65384;52.016;5.428;2023-03-01T11:14:45;8.70;;;3.65;;
68457;SDS011;65384;52.016;5.428;2023-03-01T11:17:30;6.60;;;3.50;;
68457;SDS011;65384;52.016;5.428;2023-03-01T11:22:37;9.77;;;4.07;;
68457;SDS011;65384;52.016;5.428;2023-03-01T11:25:11;7.65;;;3.65;;
68457;SDS011;65384;52.016;5.428;2023-03-01T11:27:40;6.95;;;3.72;;
68457;SDS011;65384;52.016;5.428;2023-03-01T11:30:07;6.88;;;3.30;;
68457;SDS011;65384;52.016;5.428;2023-03-01T11:32:42;5.75;;;3.15;;
68457;SDS011;65384;52.016;5.428;2023-03-01T11:35:18;7.30;;;3.90;;
68457;SDS011;65384;52.016;5.428;2023-03-01T11:40:33;6.85;;;3.40;;
68457;SDS011;65384;52.016;5.428;2023-03-01T11:43:16;7.32;;;3.80;;
68457;SDS011;65384;52.016;5.428;2023-03-01T11:51:05;6.55;;;3.75;;
68457;SDS011;65384;52.016;5.428;2023-03-01T11:53:47;6.30;;;3.80;;
68457;SDS011;65384;52.016;5.428;2023-03-01T11:56:29;6.70;;;3.40;;
68457;SDS011;65384;52.016;5.428;2023-03-01T11:59:33;6.53;;;3.72;;
68457;SDS011;65384;52.016;5.428;2023-03-01T12:10:23;6.68;;;3.92;;
68457;SDS011;65384;52.016;5.428;2023-03-01T12:21:35;7.55;;;3.85;;
68457;SDS011;65384;52.016;5.428;2023-03-01T12:34:52;7.75;;;3.72;;
68457;SDS011;65384;52.016;5.428;2023-03-01T12:37:28;6.95;;;3.80;;
68457;SDS011;65384;52.016;5.428;2023-03-01T12:42:58;7.57;;;3.95;;
68457;SDS011;65384;52.016;5.428;2023-03-01T12:50:46;7.00;;;3.88;;
68457;SDS011;65384;52.016;5.428;2023-03-01T12:53:20;7.38;;;4.00;;
68457;SDS011;65384;52.016;5.428;2023-03-01T12:55:47;5.15;;;3.22;;
68457;SDS011;65384;52.016;5.428;2023-03-01T13:07:34;7.70;;;4.05;;
68457;SDS011;65384;52.016;5.428;2023-03-01T13:17:51;8.13;;;4.50;;
68457;SDS011;65384;52.016;5.428;2023-03-01T13:20:29;9.48;;;4.43;;
68457;SDS011;65384;52.016;5.428;2023-03-01T13:23:01;9.65;;;4.70;;
68457;SDS011;65384;52.016;5.428;2023-03-01T13:25:29;11.68;;;5.25;;
68457;SDS011;65384;52.016;5.428;2023-03-01T13:30:59;10.75;;;4.60;;
68457;SDS011;65384;52.016;5.428;2023-03-01T13:35:53;9.45;;;4.93;;
68457;SDS011;65384;52.016;5.428;2023-03-01T13:41:09;8.10;;;3.90;;
68457;SDS011;65384;52.016;5.428;2023-03-01T13:43:35;9.60;;;4.80;;
68457;SDS011;65384;52.016;5.428;2023-03-01T13:46:14;7.55;;;4.30;;
68457;SDS011;65384;52.016;5.428;2023-03-01T13:48:42;8.00;;;3.95;;
68457;SDS011;65384;52.016;5.428;2023-03-01T13:51:09;7.40;;;3.80;;
68457;SDS011;65384;52.016;5.428;2023-03-01T13:53:36;10.38;;;3.80;;
68457;SDS011;65384;52.016;5.428;2023-03-01T13:56:09;6.90;;;3.70;;
68457;SDS011;65384;52.016;5.428;2023-03-01T13:58:54;7.38;;;3.90;;
68457;SDS011;65384;52.016;5.428;2023-03-01T14:03:51;6.18;;;3.53;;
68457;SDS011;65384;52.016;5.428;2023-03-01T14:06:21;6.07;;;3.47;;
68457;SDS011;65384;52.016;5.428;2023-03-01T14:19:34;7.53;;;3.65;;
68457;SDS011;65384;52.016;5.428;2023-03-01T14:24:53;8.68;;;3.45;;
68457;SDS011;65384;52.016;5.428;2023-03-01T14:27:20;7.75;;;3.70;;
68457;SDS011;65384;52.016;5.428;2023-03-01T14:29:56;8.57;;;3.50;;
68457;SDS011;65384;52.016;5.428;2023-03-01T14:32:27;7.93;;;3.63;;
68457;SDS011;65384;52.016;5.428;2023-03-01T14:34:53;6.38;;;3.60;;
68457;SDS011;65384;52.016;5.428;2023-03-01T14:37:21;9.43;;;3.75;;
68457;SDS011;65384;52.016;5.428;2023-03-01T14:40:19;7.47;;;3.60;;
68457;SDS011;65384;52.016;5.428;2023-03-01T14:42:49;8.13;;;3.60;;
68457;SDS011;65384;52.016;5.428;2023-03-01T14:45:14;8.05;;;3.42;;
68457;SDS011;65384;52.016;5.428;2023-03-01T14:47:40;7.93;;;3.40;;
68457;SDS011;65384;52.016;5.428;2023-03-01T14:50:18;9.15;;;3.60;;
68457;SDS011;65384;52.016;5.428;2023-03-01T14:52:47;5.78;;;3.15;;
68457;SDS011;65384;52.016;5.428;2023-03-01T14:55:18;8.50;;;3.83;;
68457;SDS011;65384;52.016;5.428;2023-03-01T14:57:48;7.25;;;3.25;;
68457;SDS011;65384;52.016;5.428;2023-03-01T15:02:43;7.63;;;3.50;;
68457;SDS011;65384;52.016;5.428;2023-03-01T15:05:09;7.40;;;3.55;;
68457;SDS011;65384;52.016;5.428;2023-03-01T15:07:41;8.02;;;3.50;;
68457;SDS011;65384;52.016;5.428;2023-03-01T15:10:24;7.10;;;3.40;;
68457;SDS011;65384;52.016;5.428;2023-03-01T15:12:54;8.60;;;3.40;;
68457;SDS011;65384;52.016;5.428;2023-03-01T15:15:33;7.18;;;3.60;;
68457;SDS011;65384;52.016;5.428;2023-03-01T15:18:05;8.35;;;3.72;;
68457;SDS011;65384;52.016;5.428;2023-03-01T15:20:38;9.10;;;3.88;;
68457;SDS011;65384;52.016;5.428;2023-03-01T15:23:04;7.95;;;3.40;;
68457;SDS011;65384;52.016;5.428;2023-03-01T15:25:30;9.73;;;3.67;;
68457;SDS011;65384;52.016;5.428;2023-03-01T15:27:58;6.97;;;3.20;;
68457;SDS011;65384;52.016;5.428;2023-03-01T15:30:29;7.32;;;3.60;;
68457;SDS011;65384;52.016;5.428;2023-03-01T15:36:00;8.38;;;3.83;;
68457;SDS011;65384;52.016;5.428;2023-03-01T15:41:30;8.82;;;3.03;;
68457;SDS011;65384;52.016;5.428;2023-03-01T15:44:00;7.15;;;3.38;;
68457;SDS011;65384;52.016;5.428;2023-03-01T15:46:39;9.18;;;3.70;;
68457;SDS011;65384;52.016;5.428;2023-03-01T15:49:05;11.43;;;3.60;;
68457;SDS011;65384;52.016;5.428;2023-03-01T15:51:50;6.30;;;3.25;;
68457;SDS011;65384;52.016;5.428;2023-03-01T15:54:20;9.98;;;3.47;;
68457;SDS011;65384;52.016;5.428;2023-03-01T15:56:49;6.88;;;3.35;;
68457;SDS011;65384;52.016;5.428;2023-03-01T15:59:15;10.57;;;3.45;;
68457;SDS011;65384;52.016;5.428;2023-03-01T16:01:41;8.63;;;3.45;;
68457;SDS011;65384;52.016;5.428;2023-03-01T16:04:08;8.50;;;3.20;;
68457;SDS011;65384;52.016;5.428;2023-03-01T16:06:35;6.25;;;3.20;;
68457;SDS011;65384;52.016;5.428;2023-03-01T16:09:00;10.18;;;2.90;;
68457;SDS011;65384;52.016;5.428;2023-03-01T16:11:27;6.72;;;3.15;;
68457;SDS011;65384;52.016;5.428;2023-03-01T16:13:52;6.97;;;3.47;;
68457;SDS011;65384;52.016;5.428;2023-03-01T16:16:18;8.23;;;3.38;;
68457;SDS011;65384;52.016;5.428;2023-03-01T16:18:44;6.80;;;3.15;;
68457;SDS011;65384;52.016;5.428;2023-03-01T16:21:11;5.93;;;3.20;;
68457;SDS011;65384;52.016;5.428;2023-03-01T16:23:38;6.93;;;3.35;;
68457;SDS011;65384;52.016;5.428;2023-03-01T16:26:04;7.07;;;3.20;;
68457;SDS011;65384;52.016;5.428;2023-03-01T16:28:29;8.38;;;3.40;;
68457;SDS011;65384;52.016;5.428;2023-03-01T16:30:54;6.85;;;3.20;;
68457;SDS011;65384;52.016;5.428;2023-03-01T16:33:20;9.57;;;3.47;;
68457;SDS011;65384;52.016;5.428;2023-03-01T16:35:45;7.13;;;3.70;;
68457;SDS011;65384;52.016;5.428;2023-03-01T16:38:11;8.00;;;3.70;;
68457;SDS011;65384;52.016;5.428;2023-03-01T16:40:36;7.57;;;3.60;;
68457;SDS011;65384;52.016;5.428;2023-03-01T16:43:02;8.38;;;3.50;;
68457;SDS011;65384;52.016;5.428;2023-03-01T16:45:29;7.30;;;3.60;;
68457;SDS011;65384;52.016;5.428;2023-03-01T16:48:00;8.80;;;3.83;;
68457;SDS011;65384;52.016;5.428;2023-03-01T16:50:25;7.90;;;3.72;;